sensor_id;sensor_type;location;lat;lon;timestamp;pressure;altitude;pressure_sealevel;temperature;humidity
11912;BME280;6016;41.928;25.556;2022-08-06T00:02:05;98736.75;;;27.57;46.20
11912;BME280;6016;41.928;25.556;2022-08-06T00:04:32;98731.03;;;27.53;46.20
11912;BME280;6016;41.928;25.556;2022-08-06T00:06:59;98731.03;;;27.53;46.35
11912;BME280;6016;41.928;25.556;2022-08-06T00:09:26;98729.66;;;27.50;46.51
11912;BME280;6016;41.928;25.556;2022-08-06T00:11:56;98731.78;;;27.48;46.16
11912;BME280;6016;41.928;25.556;2022-08-06T00:14:24;98730.44;;;27.46;46.77
11912;BME280;6016;41.928;25.556;2022-08-06T00:16:51;98730.69;;;27.44;46.69
11912;BME280;6016;41.928;25.556;2022-08-06T00:19:19;98730.13;;;27.42;46.84
11912;BME280;6016;41.928;25.556;2022-08-06T00:21:47;98737.72;;;27.40;46.65
11912;BME280;6016;41.928;25.556;2022-08-06T00:24:14;98672.69;;;27.02;46.58
11912;BME280;6016;41.928;25.556;2022-08-06T00:26:41;98547.75;;;26.18;46.35
11912;BME280;6016;41.928;25.556;2022-08-06T00:29:07;98738.22;;;27.37;46.85
11912;BME280;6016;41.928;25.556;2022-08-06T00:31:34;98630.44;;;26.68;46.66
11912;BME280;6016;41.928;25.556;2022-08-06T00:34:01;98741.72;;;27.32;46.89
11912;BME280;6016;41.928;25.556;2022-08-06T00:36:31;98735.22;;;27.33;46.91
11912;BME280;6016;41.928;25.556;2022-08-06T00:39:00;98720.75;;;27.17;46.90
11912;BME280;6016;41.928;25.556;2022-08-06T00:41:28;98734.91;;;27.30;46.98
11912;BME280;6016;41.928;25.556;2022-08-06T00:43:56;98696.81;;;27.04;46.95
11912;BME280;6016;41.928;25.556;2022-08-06T00:46:23;98730.03;;;27.27;47.04
11912;BME280;6016;41.928;25.556;2022-08-06T00:48:50;98725.94;;;27.24;47.11
11912;BME280;6016;41.928;25.556;2022-08-06T00:51:17;98728.88;;;27.22;47.22
11912;BME280;6016;41.928;25.556;2022-08-06T00:53:45;98726.72;;;27.19;46.90
11912;BME280;6016;41.928;25.556;2022-08-06T00:56:12;98738.38;;;27.20;47.22
11912;BME280;6016;41.928;25.556;2022-08-06T00:58:39;98734.28;;;27.17;46.78
11912;BME280;6016;41.928;25.556;2022-08-06T01:01:06;98730.47;;;27.13;47.14
11912;BME280;6016;41.928;25.556;2022-08-06T01:03:33;98733.19;;;27.13;47.37
11912;BME280;6016;41.928;25.556;2022-08-06T01:06:00;98734.25;;;27.12;47.47
11912;BME280;6016;41.928;25.556;2022-08-06T01:08:27;98736.13;;;27.12;47.04
11912;BME280;6016;41.928;25.556;2022-08-06T01:10:55;98726.63;;;27.09;47.59
11912;BME280;6016;41.928;25.556;2022-08-06T01:13:22;98709.94;;;26.90;47.55
11912;BME280;6016;41.928;25.556;2022-08-06T01:15:53;98730.38;;;27.03;47.80
11912;BME280;6016;41.928;25.556;2022-08-06T01:18:27;98730.31;;;26.98;47.46
11912;BME280;6016;41.928;25.556;2022-08-06T01:21:08;98377.34;;;24.70;47.32
11912;BME280;6016;41.928;25.556;2022-08-06T01:23:50;98728.75;;;27.02;47.66
11912;BME280;6016;41.928;25.556;2022-08-06T01:26:42;98726.28;;;27.00;47.65
11912;BME280;6016;41.928;25.556;2022-08-06T01:29:15;98721.63;;;26.95;47.38
11912;BME280;6016;41.928;25.556;2022-08-06T01:31:47;98699.81;;;26.80;47.45
11912;BME280;6016;41.928;25.556;2022-08-06T01:34:20;98699.50;;;26.76;47.78
11912;BME280;6016;41.928;25.556;2022-08-06T01:36:53;98727.03;;;26.90;47.80
11912;BME280;6016;41.928;25.556;2022-08-06T01:39:21;98696.72;;;26.66;47.45
11912;BME280;6016;41.928;25.556;2022-08-06T01:41:51;98718.34;;;26.88;47.47
11912;BME280;6016;41.928;25.556;2022-08-06T01:44:23;98716.72;;;26.87;47.63
11912;BME280;6016;41.928;25.556;2022-08-06T01:46:55;98712.34;;;26.86;47.48
11912;BME280;6016;41.928;25.556;2022-08-06T01:49:26;98699.78;;;26.75;48.16
11912;BME280;6016;41.928;25.556;2022-08-06T01:51:56;98705.53;;;26.83;47.72
11912;BME280;6016;41.928;25.556;2022-08-06T01:54:24;98684.56;;;26.68;48.08
11912;BME280;6016;41.928;25.556;2022-08-06T01:56:54;98707.13;;;26.79;48.10
11912;BME280;6016;41.928;25.556;2022-08-06T01:59:27;98704.38;;;26.74;48.24
11912;BME280;6016;41.928;25.556;2022-08-06T02:01:56;98709.25;;;26.77;48.14
11912;BME280;6016;41.928;25.556;2022-08-06T02:04:29;98711.97;;;26.77;48.26
11912;BME280;6016;41.928;25.556;2022-08-06T02:06:58;98687.72;;;26.60;48.40
11912;BME280;6016;41.928;25.556;2022-08-06T02:09:27;98700.81;;;26.68;48.22
11912;BME280;6016;41.928;25.556;2022-08-06T02:11:59;98704.91;;;26.71;48.69
11912;BME280;6016;41.928;25.556;2022-08-06T02:14:30;98702.97;;;26.72;48.42
11912;BME280;6016;41.928;25.556;2022-08-06T02:17:01;98708.41;;;26.72;48.84
11912;BME280;6016;41.928;25.556;2022-08-06T02:19:29;98712.44;;;26.69;48.62
11912;BME280;6016;41.928;25.556;2022-08-06T02:21:59;98700.81;;;26.68;49.32
11912;BME280;6016;41.928;25.556;2022-08-06T02:24:28;98701.88;;;26.67;48.80
11912;BME280;6016;41.928;25.556;2022-08-06T02:26:59;98705.66;;;26.66;48.91
11912;BME280;6016;41.928;25.556;2022-08-06T02:29:29;98695.00;;;26.54;49.71
11912;BME280;6016;41.928;25.556;2022-08-06T02:31:57;98705.34;;;26.63;49.32
11912;BME280;6016;41.928;25.556;2022-08-06T02:34:24;98708.31;;;26.61;49.33
11912;BME280;6016;41.928;25.556;2022-08-06T02:36:55;98711.03;;;26.61;49.82
11912;BME280;6016;41.928;25.556;2022-08-06T02:39:25;98703.56;;;26.46;49.36
11912;BME280;6016;41.928;25.556;2022-08-06T02:42:00;98702.03;;;26.56;49.89
11912;BME280;6016;41.928;25.556;2022-08-06T02:44:38;98711.78;;;26.57;49.93
11912;BME280;6016;41.928;25.556;2022-08-06T02:47:09;98705.22;;;26.52;49.49
11912;BME280;6016;41.928;25.556;2022-08-06T02:49:41;98708.22;;;26.51;49.93
11912;BME280;6016;41.928;25.556;2022-08-06T02:52:14;98709.56;;;26.53;49.77
11912;BME280;6016;41.928;25.556;2022-08-06T02:54:46;98707.94;;;26.52;49.75
11912;BME280;6016;41.928;25.556;2022-08-06T02:57:22;98711.72;;;26.51;50.03
11912;BME280;6016;41.928;25.556;2022-08-06T02:59:54;98724.09;;;26.42;50.17
11912;BME280;6016;41.928;25.556;2022-08-06T03:02:26;98696.03;;;26.26;50.58
11912;BME280;6016;41.928;25.556;2022-08-06T03:04:56;98717.81;;;26.36;50.45
11912;BME280;6016;41.928;25.556;2022-08-06T03:07:26;98717.81;;;26.36;50.57
11912;BME280;6016;41.928;25.556;2022-08-06T03:09:54;98692.63;;;26.13;50.57
11912;BME280;6016;41.928;25.556;2022-08-06T03:12:22;98719.34;;;26.32;50.57
11912;BME280;6016;41.928;25.556;2022-08-06T03:14:50;98593.28;;;25.54;50.35
11912;BME280;6016;41.928;25.556;2022-08-06T03:17:21;98717.53;;;26.38;50.24
11912;BME280;6016;41.928;25.556;2022-08-06T03:19:50;98717.81;;;26.36;50.55
11912;BME280;6016;41.928;25.556;2022-08-06T03:22:18;98715.09;;;26.36;50.39
11912;BME280;6016;41.928;25.556;2022-08-06T03:24:45;98694.78;;;26.11;50.17
11912;BME280;6016;41.928;25.556;2022-08-06T03:27:15;98701.19;;;26.27;50.08
11912;BME280;6016;41.928;25.556;2022-08-06T03:29:43;98711.00;;;26.34;50.58
11912;BME280;6016;41.928;25.556;2022-08-06T03:32:12;98653.41;;;25.89;50.44
11912;BME280;6016;41.928;25.556;2022-08-06T03:34:42;98722.34;;;26.31;50.52
11912;BME280;6016;41.928;25.556;2022-08-06T03:37:10;98723.66;;;26.28;50.67
11912;BME280;6016;41.928;25.556;2022-08-06T03:39:39;98725.22;;;26.24;50.80
11912;BME280;6016;41.928;25.556;2022-08-06T03:42:08;98701.41;;;26.04;50.58
11912;BME280;6016;41.928;25.556;2022-08-06T03:44:35;98728.75;;;26.24;50.63
11912;BME280;6016;41.928;25.556;2022-08-06T03:47:06;98728.22;;;26.27;50.98
11912;BME280;6016;41.928;25.556;2022-08-06T03:49:38;98519.25;;;24.88;50.93
11912;BME280;6016;41.928;25.556;2022-08-06T03:52:11;98726.88;;;26.25;50.93
11912;BME280;6016;41.928;25.556;2022-08-06T03:54:43;98709.78;;;26.02;50.70
11912;BME280;6016;41.928;25.556;2022-08-06T03:57:14;98724.16;;;26.25;50.99
11912;BME280;6016;41.928;25.556;2022-08-06T03:59:44;98702.81;;;26.06;50.93
11912;BME280;6016;41.928;25.556;2022-08-06T04:02:13;98725.78;;;26.26;50.93
11912;BME280;6016;41.928;25.556;2022-08-06T04:04:42;98569.69;;;25.27;51.00
11912;BME280;6016;41.928;25.556;2022-08-06T04:07:12;98719.56;;;26.25;50.71
11912;BME280;6016;41.928;25.556;2022-08-06T04:09:39;98716.13;;;26.13;50.68
11912;BME280;6016;41.928;25.556;2022-08-06T04:12:08;98678.81;;;25.88;51.55
11912;BME280;6016;41.928;25.556;2022-08-06T04:14:35;98664.66;;;25.80;52.28
11912;BME280;6016;41.928;25.556;2022-08-06T04:17:03;98570.44;;;25.22;51.51
11912;BME280;6016;41.928;25.556;2022-08-06T04:19:32;98713.28;;;26.03;51.76
11912;BME280;6016;41.928;25.556;2022-08-06T04:22:00;98742.09;;;26.14;51.65
11912;BME280;6016;41.928;25.556;2022-08-06T04:24:28;98734.56;;;26.16;52.08
11912;BME280;6016;41.928;25.556;2022-08-06T04:26:56;98737.88;;;26.18;51.71
11912;BME280;6016;41.928;25.556;2022-08-06T04:29:25;98734.91;;;26.20;52.04
11912;BME280;6016;41.928;25.556;2022-08-06T04:31:52;98711.53;;;25.91;51.89
11912;BME280;6016;41.928;25.556;2022-08-06T04:34:23;98692.38;;;25.93;52.02
11912;BME280;6016;41.928;25.556;2022-08-06T04:36:51;98741.47;;;26.24;52.03
11912;BME280;6016;41.928;25.556;2022-08-06T04:39:20;98734.16;;;26.24;51.94
11912;BME280;6016;41.928;25.556;2022-08-06T04:41:49;98739.31;;;26.26;52.29
11912;BME280;6016;41.928;25.556;2022-08-06T04:44:17;98586.75;;;25.33;52.32
11912;BME280;6016;41.928;25.556;2022-08-06T04:46:44;98729.81;;;26.23;52.41
11912;BME280;6016;41.928;25.556;2022-08-06T04:49:14;98738.91;;;26.17;52.44
11912;BME280;6016;41.928;25.556;2022-08-06T04:51:41;98554.28;;;25.05;52.25
11912;BME280;6016;41.928;25.556;2022-08-06T04:54:11;98758.56;;;26.30;52.74
11912;BME280;6016;41.928;25.556;2022-08-06T04:56:38;98733.25;;;26.19;52.13
11912;BME280;6016;41.928;25.556;2022-08-06T04:59:07;98678.25;;;25.86;53.20
11912;BME280;6016;41.928;25.556;2022-08-06T05:01:34;98676.84;;;25.83;52.91
11912;BME280;6016;41.928;25.556;2022-08-06T05:04:00;98694.09;;;25.99;53.31
11912;BME280;6016;41.928;25.556;2022-08-06T05:06:35;98754.00;;;26.35;53.25
11912;BME280;6016;41.928;25.556;2022-08-06T05:09:08;98626.66;;;25.48;54.16
11912;BME280;6016;41.928;25.556;2022-08-06T05:11:39;98748.88;;;26.34;54.33
11912;BME280;6016;41.928;25.556;2022-08-06T05:14:20;98747.47;;;26.31;53.37
11912;BME280;6016;41.928;25.556;2022-08-06T05:16:50;98753.16;;;26.30;53.60
11912;BME280;6016;41.928;25.556;2022-08-06T05:19:24;98675.09;;;25.72;54.55
11912;BME280;6016;41.928;25.556;2022-08-06T05:21:53;98765.34;;;26.32;53.38
11912;BME280;6016;41.928;25.556;2022-08-06T05:24:22;98705.69;;;25.77;54.32
11912;BME280;6016;41.928;25.556;2022-08-06T05:26:49;98725.97;;;26.19;53.62
11912;BME280;6016;41.928;25.556;2022-08-06T05:29:20;98707.66;;;26.04;54.69
11912;BME280;6016;41.928;25.556;2022-08-06T05:31:47;98609.75;;;25.52;55.00
11912;BME280;6016;41.928;25.556;2022-08-06T05:34:14;98747.56;;;26.36;55.77
11912;BME280;6016;41.928;25.556;2022-08-06T05:36:41;98744.22;;;26.29;54.78
11912;BME280;6016;41.928;25.556;2022-08-06T05:39:08;98618.25;;;25.44;54.83
11912;BME280;6016;41.928;25.556;2022-08-06T05:41:35;98754.28;;;26.34;55.17
11912;BME280;6016;41.928;25.556;2022-08-06T05:44:02;98622.69;;;25.50;55.45
11912;BME280;6016;41.928;25.556;2022-08-06T05:46:33;98749.56;;;26.24;55.15
11912;BME280;6016;41.928;25.556;2022-08-06T05:49:05;98745.72;;;26.20;54.37
11912;BME280;6016;41.928;25.556;2022-08-06T05:51:38;98662.69;;;25.76;54.96
11912;BME280;6016;41.928;25.556;2022-08-06T05:54:20;98643.94;;;25.64;53.88
11912;BME280;6016;41.928;25.556;2022-08-06T05:56:50;98721.03;;;26.16;54.62
11912;BME280;6016;41.928;25.556;2022-08-06T05:59:21;98749.66;;;26.34;54.08
11912;BME280;6016;41.928;25.556;2022-08-06T06:01:51;98756.22;;;26.38;53.51
11912;BME280;6016;41.928;25.556;2022-08-06T06:04:18;98756.84;;;26.46;53.68
11912;BME280;6016;41.928;25.556;2022-08-06T06:06:46;98757.97;;;26.50;53.71
11912;BME280;6016;41.928;25.556;2022-08-06T06:09:14;98667.31;;;25.97;54.92
11912;BME280;6016;41.928;25.556;2022-08-06T06:11:41;98752.38;;;26.57;54.92
11912;BME280;6016;41.928;25.556;2022-08-06T06:14:27;98697.13;;;26.25;55.11
11912;BME280;6016;41.928;25.556;2022-08-06T06:17:06;98637.44;;;25.87;54.47
11912;BME280;6016;41.928;25.556;2022-08-06T06:19:55;98750.78;;;26.61;54.46
11912;BME280;6016;41.928;25.556;2022-08-06T06:22:28;98720.00;;;26.39;53.83
11912;BME280;6016;41.928;25.556;2022-08-06T06:25:02;98747.91;;;26.73;53.73
11912;BME280;6016;41.928;25.556;2022-08-06T06:27:37;98743.03;;;26.69;53.54
11912;BME280;6016;41.928;25.556;2022-08-06T06:30:06;98748.75;;;26.73;54.37
11912;BME280;6016;41.928;25.556;2022-08-06T06:32:49;98730.53;;;26.63;53.34
11912;BME280;6016;41.928;25.556;2022-08-06T06:35:26;98693.25;;;26.43;54.22
11912;BME280;6016;41.928;25.556;2022-08-06T06:38:01;98740.25;;;26.87;54.53
11912;BME280;6016;41.928;25.556;2022-08-06T06:40:42;98658.53;;;26.35;53.34
11912;BME280;6016;41.928;25.556;2022-08-06T06:43:14;98734.31;;;26.90;53.67
11912;BME280;6016;41.928;25.556;2022-08-06T06:45:50;98731.38;;;26.96;53.75
11912;BME280;6016;41.928;25.556;2022-08-06T06:48:23;98734.16;;;27.02;54.18
11912;BME280;6016;41.928;25.556;2022-08-06T06:50:53;98687.34;;;26.74;52.73
11912;BME280;6016;41.928;25.556;2022-08-06T06:53:21;98705.53;;;26.83;52.63
11912;BME280;6016;41.928;25.556;2022-08-06T06:55:53;98728.25;;;27.10;53.62
11912;BME280;6016;41.928;25.556;2022-08-06T06:58:27;98726.38;;;27.10;52.61
11912;BME280;6016;41.928;25.556;2022-08-06T07:00:56;98726.94;;;27.13;52.80
11912;BME280;6016;41.928;25.556;2022-08-06T07:03:25;98708.50;;;27.09;52.86
11912;BME280;6016;41.928;25.556;2022-08-06T07:05:54;98571.16;;;26.29;52.76
11912;BME280;6016;41.928;25.556;2022-08-06T07:08:24;98719.22;;;27.32;53.01
11912;BME280;6016;41.928;25.556;2022-08-06T07:10:52;98718.19;;;27.38;53.17
11912;BME280;6016;41.928;25.556;2022-08-06T07:13:21;98713.88;;;27.42;51.74
11912;BME280;6016;41.928;25.556;2022-08-06T07:15:49;98704.44;;;27.50;52.30
11912;BME280;6016;41.928;25.556;2022-08-06T07:18:17;98706.94;;;27.57;51.81
11912;BME280;6016;41.928;25.556;2022-08-06T07:20:47;98704.84;;;27.64;51.97
11912;BME280;6016;41.928;25.556;2022-08-06T07:23:14;98704.06;;;27.74;51.36
11912;BME280;6016;41.928;25.556;2022-08-06T07:25:45;98705.22;;;27.88;51.33
11912;BME280;6016;41.928;25.556;2022-08-06T07:28:14;98696.59;;;28.02;52.29
11912;BME280;6016;41.928;25.556;2022-08-06T07:30:42;98685.47;;;27.98;51.15
11912;BME280;6016;41.928;25.556;2022-08-06T07:33:10;98681.72;;;28.15;49.95
11912;BME280;6016;41.928;25.556;2022-08-06T07:35:40;98680.97;;;28.19;50.00
11912;BME280;6016;41.928;25.556;2022-08-06T07:38:09;98696.19;;;28.36;49.19
11912;BME280;6016;41.928;25.556;2022-08-06T07:40:40;98683.72;;;28.35;49.56
11912;BME280;6016;41.928;25.556;2022-08-06T07:43:12;98697.03;;;28.57;49.58
11912;BME280;6016;41.928;25.556;2022-08-06T07:45:40;98689.72;;;28.53;49.69
11912;BME280;6016;41.928;25.556;2022-08-06T07:48:10;98690.56;;;28.79;48.63
11912;BME280;6016;41.928;25.556;2022-08-06T07:50:39;98698.47;;;28.91;49.03
11912;BME280;6016;41.928;25.556;2022-08-06T07:53:11;98695.75;;;28.96;47.26
11912;BME280;6016;41.928;25.556;2022-08-06T07:55:39;98695.50;;;29.03;47.26
11912;BME280;6016;41.928;25.556;2022-08-06T07:58:08;98698.19;;;29.13;46.05
11912;BME280;6016;41.928;25.556;2022-08-06T08:00:36;98693.28;;;29.26;47.12
11912;BME280;6016;41.928;25.556;2022-08-06T08:03:06;98672.66;;;29.19;46.32
11912;BME280;6016;41.928;25.556;2022-08-06T08:05:50;98691.09;;;29.48;46.05
11912;BME280;6016;41.928;25.556;2022-08-06T08:08:37;98681.28;;;29.58;46.13
11912;BME280;6016;41.928;25.556;2022-08-06T08:11:05;98691.84;;;29.70;45.76
11912;BME280;6016;41.928;25.556;2022-08-06T08:13:33;98689.66;;;29.77;45.29
11912;BME280;6016;41.928;25.556;2022-08-06T08:16:01;98667.94;;;29.67;44.48
11912;BME280;6016;41.928;25.556;2022-08-06T08:18:30;98685.50;;;29.95;44.10
11912;BME280;6016;41.928;25.556;2022-08-06T08:20:58;98689.00;;;30.11;45.81
11912;BME280;6016;41.928;25.556;2022-08-06T08:23:26;98688.97;;;30.16;44.19
11912;BME280;6016;41.928;25.556;2022-08-06T08:25:59;98688.41;;;30.25;43.59
11912;BME280;6016;41.928;25.556;2022-08-06T08:28:26;98675.84;;;30.29;43.87
11912;BME280;6016;41.928;25.556;2022-08-06T08:30:53;98643.03;;;30.10;44.22
11912;BME280;6016;41.928;25.556;2022-08-06T08:33:21;98669.50;;;30.44;42.98
11912;BME280;6016;41.928;25.556;2022-08-06T08:35:48;98677.03;;;30.57;42.01
11912;BME280;6016;41.928;25.556;2022-08-06T08:38:15;98618.88;;;30.43;42.91
11912;BME280;6016;41.928;25.556;2022-08-06T08:40:42;98675.72;;;30.90;41.73
11912;BME280;6016;41.928;25.556;2022-08-06T08:43:12;98644.47;;;30.82;43.05
11912;BME280;6016;41.928;25.556;2022-08-06T08:45:43;98610.50;;;30.74;42.45
11912;BME280;6016;41.928;25.556;2022-08-06T08:48:12;98666.50;;;31.15;41.36
11912;BME280;6016;41.928;25.556;2022-08-06T08:50:40;98663.53;;;31.11;42.10
11912;BME280;6016;41.928;25.556;2022-08-06T08:53:13;98641.81;;;31.06;42.09
11912;BME280;6016;41.928;25.556;2022-08-06T08:55:40;98655.81;;;31.24;42.09
11912;BME280;6016;41.928;25.556;2022-08-06T08:58:07;98649.16;;;31.35;41.62
11912;BME280;6016;41.928;25.556;2022-08-06T09:00:36;98653.41;;;31.47;41.80
11912;BME280;6016;41.928;25.556;2022-08-06T09:03:03;98649.81;;;31.51;40.52
11912;BME280;6016;41.928;25.556;2022-08-06T09:05:31;98643.78;;;31.54;40.80
11912;BME280;6016;41.928;25.556;2022-08-06T09:07:59;98608.28;;;31.35;41.80
11912;BME280;6016;41.928;25.556;2022-08-06T09:10:28;98631.75;;;31.55;41.16
11912;BME280;6016;41.928;25.556;2022-08-06T09:12:55;98593.44;;;31.47;39.95
11912;BME280;6016;41.928;25.556;2022-08-06T09:15:23;98649.09;;;31.89;41.01
11912;BME280;6016;41.928;25.556;2022-08-06T09:17:51;98634.81;;;31.97;39.96
11912;BME280;6016;41.928;25.556;2022-08-06T09:20:18;98624.25;;;31.91;39.82
11912;BME280;6016;41.928;25.556;2022-08-06T09:22:45;98635.78;;;32.07;40.29
11912;BME280;6016;41.928;25.556;2022-08-06T09:25:35;98621.81;;;32.27;39.81
11912;BME280;6016;41.928;25.556;2022-08-06T09:28:02;98631.56;;;32.34;39.22
11912;BME280;6016;41.928;25.556;2022-08-06T09:30:29;98626.50;;;32.46;39.57
11912;BME280;6016;41.928;25.556;2022-08-06T09:32:58;98631.19;;;32.60;39.42
11912;BME280;6016;41.928;25.556;2022-08-06T09:35:26;98622.03;;;32.69;38.10
11912;BME280;6016;41.928;25.556;2022-08-06T09:38:00;98609.09;;;32.75;37.54
11912;BME280;6016;41.928;25.556;2022-08-06T09:40:27;98610.31;;;32.83;37.19
11912;BME280;6016;41.928;25.556;2022-08-06T09:42:54;98620.44;;;32.82;37.63
11912;BME280;6016;41.928;25.556;2022-08-06T09:45:23;98589.03;;;32.66;36.78
11912;BME280;6016;41.928;25.556;2022-08-06T09:48:02;98611.81;;;33.08;38.13
11912;BME280;6016;41.928;25.556;2022-08-06T09:50:40;98612.63;;;33.23;37.27
11912;BME280;6016;41.928;25.556;2022-08-06T09:53:07;98608.59;;;33.34;37.75
11912;BME280;6016;41.928;25.556;2022-08-06T09:55:34;98603.22;;;33.43;37.02
11912;BME280;6016;41.928;25.556;2022-08-06T09:58:01;98602.84;;;33.50;37.15
11912;BME280;6016;41.928;25.556;2022-08-06T10:00:30;98580.03;;;33.55;36.37
11912;BME280;6016;41.928;25.556;2022-08-06T10:02:58;98605.31;;;33.74;35.60
11912;BME280;6016;41.928;25.556;2022-08-06T10:05:27;98593.31;;;33.61;36.30
11912;BME280;6016;41.928;25.556;2022-08-06T10:08:06;98589.75;;;33.61;35.93
11912;BME280;6016;41.928;25.556;2022-08-06T10:10:45;98590.66;;;33.70;36.49
11912;BME280;6016;41.928;25.556;2022-08-06T10:13:18;98587.28;;;33.73;35.37
11912;BME280;6016;41.928;25.556;2022-08-06T10:15:45;98590.56;;;33.75;36.03
11912;BME280;6016;41.928;25.556;2022-08-06T10:18:38;98578.88;;;33.84;35.63
11912;BME280;6016;41.928;25.556;2022-08-06T10:21:08;98580.38;;;33.90;36.00
11912;BME280;6016;41.928;25.556;2022-08-06T10:23:38;98578.53;;;33.99;34.91
11912;BME280;6016;41.928;25.556;2022-08-06T10:26:07;98567.78;;;34.03;36.02
11912;BME280;6016;41.928;25.556;2022-08-06T10:28:37;98565.94;;;34.12;35.59
11912;BME280;6016;41.928;25.556;2022-08-06T10:31:07;98573.75;;;34.05;34.35
11912;BME280;6016;41.928;25.556;2022-08-06T10:33:40;98572.47;;;34.02;35.36
11912;BME280;6016;41.928;25.556;2022-08-06T10:36:13;98569.16;;;34.14;35.75
11912;BME280;6016;41.928;25.556;2022-08-06T10:38:42;98567.28;;;34.01;35.03
11912;BME280;6016;41.928;25.556;2022-08-06T10:41:11;98569.66;;;33.79;35.40
11912;BME280;6016;41.928;25.556;2022-08-06T10:43:39;98558.72;;;33.79;35.29
11912;BME280;6016;41.928;25.556;2022-08-06T10:46:10;98556.69;;;33.71;35.59
11912;BME280;6016;41.928;25.556;2022-08-06T10:48:39;98528.00;;;33.46;35.64
11912;BME280;6016;41.928;25.556;2022-08-06T10:51:09;98557.31;;;33.82;34.17
11912;BME280;6016;41.928;25.556;2022-08-06T10:53:38;98561.38;;;33.71;35.28
11912;BME280;6016;41.928;25.556;2022-08-06T10:56:06;98549.88;;;33.46;35.33
11912;BME280;6016;41.928;25.556;2022-08-06T10:58:34;98538.81;;;33.23;35.66
11912;BME280;6016;41.928;25.556;2022-08-06T11:01:05;98554.09;;;33.10;35.71
11912;BME280;6016;41.928;25.556;2022-08-06T11:03:37;98551.31;;;32.82;36.09
11912;BME280;6016;41.928;25.556;2022-08-06T11:09:18;98531.00;;;32.88;36.58
11912;BME280;6016;41.928;25.556;2022-08-06T11:11:51;98533.56;;;33.27;37.00
11912;BME280;6016;41.928;25.556;2022-08-06T11:14:24;98505.69;;;33.38;36.51
11912;BME280;6016;41.928;25.556;2022-08-06T11:16:55;98532.03;;;33.48;36.89
11912;BME280;6016;41.928;25.556;2022-08-06T11:19:41;98522.91;;;33.25;37.35
11912;BME280;6016;41.928;25.556;2022-08-06T11:22:35;98536.09;;;33.09;36.39
11912;BME280;6016;41.928;25.556;2022-08-06T11:25:04;98490.81;;;32.75;35.86
11912;BME280;6016;41.928;25.556;2022-08-06T11:27:48;98530.78;;;32.84;36.85
11912;BME280;6016;41.928;25.556;2022-08-06T11:30:16;98523.28;;;32.76;37.01
11912;BME280;6016;41.928;25.556;2022-08-06T11:32:44;98494.66;;;32.60;37.79
11912;BME280;6016;41.928;25.556;2022-08-06T11:35:38;98518.84;;;32.80;36.87
11912;BME280;6016;41.928;25.556;2022-08-06T11:38:08;98524.31;;;32.80;36.79
11912;BME280;6016;41.928;25.556;2022-08-06T11:40:55;98520.88;;;32.75;37.61
11912;BME280;6016;41.928;25.556;2022-08-06T11:43:47;98525.91;;;32.67;37.13
11912;BME280;6016;41.928;25.556;2022-08-06T11:46:18;98529.53;;;32.63;37.17
11912;BME280;6016;41.928;25.556;2022-08-06T11:49:11;98527.44;;;32.88;36.95
11912;BME280;6016;41.928;25.556;2022-08-06T11:51:39;98522.13;;;33.10;36.06
11912;BME280;6016;41.928;25.556;2022-08-06T11:54:16;98523.81;;;33.34;36.08
11912;BME280;6016;41.928;25.556;2022-08-06T11:57:17;98519.53;;;33.56;35.49
11912;BME280;6016;41.928;25.556;2022-08-06T11:59:46;98518.31;;;33.76;33.34
11912;BME280;6016;41.928;25.556;2022-08-06T12:02:15;98509.41;;;33.93;35.02
11912;BME280;6016;41.928;25.556;2022-08-06T12:04:43;98497.84;;;33.97;34.23
11912;BME280;6016;41.928;25.556;2022-08-06T12:07:20;98457.22;;;33.67;33.93
11912;BME280;6016;41.928;25.556;2022-08-06T12:09:59;98502.81;;;33.72;34.95
11912;BME280;6016;41.928;25.556;2022-08-06T12:12:37;98501.34;;;33.51;34.70
11912;BME280;6016;41.928;25.556;2022-08-06T12:15:36;98506.56;;;33.62;34.69
11912;BME280;6016;41.928;25.556;2022-08-06T12:18:03;98486.19;;;33.68;34.49
11912;BME280;6016;41.928;25.556;2022-08-06T12:20:32;98491.28;;;33.61;34.93
11912;BME280;6016;41.928;25.556;2022-08-06T12:23:01;98489.84;;;33.63;34.00
11912;BME280;6016;41.928;25.556;2022-08-06T12:25:34;98486.94;;;33.83;34.79
11912;BME280;6016;41.928;25.556;2022-08-06T12:28:02;98473.09;;;34.02;35.65
11912;BME280;6016;41.928;25.556;2022-08-06T12:30:39;98448.41;;;33.93;34.51
11912;BME280;6016;41.928;25.556;2022-08-06T12:33:07;98471.28;;;33.97;34.05
11912;BME280;6016;41.928;25.556;2022-08-06T12:35:34;98458.91;;;33.77;34.39
11912;BME280;6016;41.928;25.556;2022-08-06T12:38:01;98483.53;;;33.77;33.38
11912;BME280;6016;41.928;25.556;2022-08-06T12:40:28;98461.00;;;33.57;33.93
11912;BME280;6016;41.928;25.556;2022-08-06T12:43:10;98483.91;;;33.84;34.17
11912;BME280;6016;41.928;25.556;2022-08-06T12:45:37;98470.59;;;33.91;33.72
11912;BME280;6016;41.928;25.556;2022-08-06T12:48:06;98472.91;;;33.98;33.93
11912;BME280;6016;41.928;25.556;2022-08-06T12:50:35;98465.38;;;34.04;34.09
11912;BME280;6016;41.928;25.556;2022-08-06T12:53:03;98338.63;;;33.26;33.72
11912;BME280;6016;41.928;25.556;2022-08-06T12:55:30;98464.72;;;33.98;33.33
11912;BME280;6016;41.928;25.556;2022-08-06T12:57:58;98460.84;;;33.99;34.17
11912;BME280;6016;41.928;25.556;2022-08-06T13:00:27;98440.56;;;34.00;33.23
11912;BME280;6016;41.928;25.556;2022-08-06T13:02:55;98445.34;;;34.17;33.33
11912;BME280;6016;41.928;25.556;2022-08-06T13:05:25;98452.66;;;34.31;33.24
11912;BME280;6016;41.928;25.556;2022-08-06T13:07:54;98427.72;;;34.32;32.39
11912;BME280;6016;41.928;25.556;2022-08-06T13:10:22;98424.22;;;34.41;33.59
11912;BME280;6016;41.928;25.556;2022-08-06T13:12:53;98439.97;;;34.35;32.29
11912;BME280;6016;41.928;25.556;2022-08-06T13:15:20;98427.66;;;34.23;32.98
11912;BME280;6016;41.928;25.556;2022-08-06T13:18:04;98431.41;;;34.36;32.23
11912;BME280;6016;41.928;25.556;2022-08-06T13:20:36;98427.50;;;34.51;31.48
11912;BME280;6016;41.928;25.556;2022-08-06T13:23:03;98426.09;;;34.63;32.11